createdAt,value
2022-08-07T00:01:44.393Z,16.92
2022-08-07T00:04:32.207Z,17.07
2022-08-07T00:07:40.905Z,17.16
2022-08-07T00:10:48.146Z,17.02
2022-08-07T00:13:59.899Z,16.90
2022-08-07T00:17:06.610Z,16.83
2022-08-07T00:20:15.633Z,16.79
2022-08-07T00:23:33.162Z,16.65
2022-08-07T00:26:49.139Z,16.81
2022-08-07T00:29:58.793Z,16.77
2022-08-07T00:33:02.685Z,16.80
2022-08-07T00:36:33.025Z,16.79
2022-08-07T00:39:36.027Z,16.81
2022-08-07T00:42:47.656Z,16.75
2022-08-07T00:45:53.059Z,16.75
2022-08-07T00:48:56.737Z,16.86
2022-08-07T00:52:08.258Z,16.77
2022-08-07T00:55:13.184Z,16.59
2022-08-07T00:58:22.328Z,16.38
2022-08-07T01:01:25.397Z,16.29
2022-08-07T01:04:30.282Z,16.18
2022-08-07T01:07:37.394Z,16.15
2022-08-07T01:10:40.564Z,16.13
2022-08-07T01:13:55.725Z,16.10
2022-08-07T01:17:00.240Z,16.15
2022-08-07T01:20:10.074Z,16.18
2022-08-07T01:23:25.492Z,16.25
2022-08-07T01:26:39.883Z,16.14
2022-08-07T01:29:43.544Z,16.06
2022-08-07T01:32:46.368Z,16.01
2022-08-07T01:35:53.327Z,16.05
2022-08-07T01:38:59.607Z,16.09
2022-08-07T01:42:36.800Z,16.00
2022-08-07T01:45:36.964Z,15.96
2022-08-07T01:48:46.638Z,15.99
2022-08-07T01:52:03.951Z,15.95
2022-08-07T01:55:22.562Z,15.85
2022-08-07T01:58:33.165Z,15.81
2022-08-07T02:02:02.728Z,15.96
2022-08-07T02:05:07.527Z,15.93
2022-08-07T02:08:13.805Z,15.77
2022-08-07T02:11:57.895Z,15.77
2022-08-07T02:14:41.552Z,15.62
2022-08-07T02:17:49.456Z,15.57
2022-08-07T02:20:57.330Z,15.61
2022-08-07T02:24:00.448Z,15.57
2022-08-07T02:27:06.896Z,15.63
2022-08-07T02:30:12.378Z,15.71
2022-08-07T02:33:18.047Z,15.62
2022-08-07T02:36:29.287Z,15.54
2022-08-07T02:39:43.979Z,15.51
2022-08-07T02:43:00.413Z,15.43
2022-08-07T02:46:03.663Z,15.42
2022-08-07T02:49:06.572Z,15.39
2022-08-07T02:52:13.482Z,15.40
2022-08-07T02:55:28.601Z,15.39
2022-08-07T02:58:47.160Z,15.20
2022-08-07T03:01:52.050Z,15.14
2022-08-07T03:04:58.025Z,15.20
2022-08-07T03:08:07.394Z,15.26
2022-08-07T03:11:12.396Z,15.24
2022-08-07T03:14:16.962Z,15.16
2022-08-07T03:17:25.755Z,15.11
2022-08-07T03:20:29.142Z,15.17
2022-08-07T03:24:19.307Z,15.12
2022-08-07T03:26:58.143Z,15.10
2022-08-07T03:30:03.808Z,15.00
2022-08-07T03:33:08.649Z,15.01
2022-08-07T03:36:15.649Z,15.01
2022-08-07T03:39:46.561Z,14.98
2022-08-07T03:42:42.314Z,14.94
2022-08-07T03:45:48.584Z,14.93
2022-08-07T03:49:02.727Z,14.93
2022-08-07T03:52:06.602Z,14.87
2022-08-07T03:55:09.977Z,14.91
2022-08-07T03:59:05.500Z,14.91
2022-08-07T04:01:43.139Z,14.89
2022-08-07T04:04:48.123Z,14.95
2022-08-07T04:07:51.398Z,15.09
2022-08-07T04:12:24.345Z,15.02
2022-08-07T04:14:38.471Z,15.00
2022-08-07T04:18:57.548Z,15.02
2022-08-07T04:21:08.671Z,14.95
2022-08-07T04:24:30.724Z,15.04
2022-08-07T04:27:44.308Z,15.10
2022-08-07T04:30:56.987Z,15.19
2022-08-07T04:34:01.705Z,15.22
2022-08-07T04:37:08.073Z,15.25
2022-08-07T04:40:29.727Z,15.34
2022-08-07T04:44:12.022Z,15.35
2022-08-07T04:47:08.691Z,15.35
2022-08-07T04:50:17.185Z,15.42
2022-08-07T04:53:39.901Z,15.44
2022-08-07T04:58:12.326Z,15.51
2022-08-07T05:00:29.965Z,15.67
2022-08-07T05:04:00.037Z,15.76
2022-08-07T05:07:19.507Z,15.87
2022-08-07T05:10:35.148Z,15.99
2022-08-07T05:14:53.041Z,16.09
2022-08-07T05:17:05.899Z,16.15
2022-08-07T05:20:16.606Z,16.29
2022-08-07T05:23:23.180Z,16.41
2022-08-07T05:26:33.271Z,16.51
2022-08-07T05:29:51.333Z,16.56
2022-08-07T05:32:57.072Z,16.78
2022-08-07T05:36:01.436Z,16.94
2022-08-07T05:39:09.038Z,17.11
2022-08-07T05:42:33.657Z,17.34
2022-08-07T05:45:47.325Z,17.59
2022-08-07T05:48:58.335Z,17.79
2022-08-07T05:52:02.340Z,17.99
2022-08-07T05:55:10.951Z,18.13
2022-08-07T05:58:14.500Z,18.08
2022-08-07T06:01:21.771Z,18.11
2022-08-07T06:04:26.252Z,18.18
2022-08-07T06:08:30.436Z,18.22
2022-08-07T06:10:58.321Z,18.28
2022-08-07T06:14:13.033Z,18.37
2022-08-07T06:17:30.610Z,18.51
2022-08-07T06:20:50.451Z,18.54
2022-08-07T06:24:38.409Z,18.79
2022-08-07T06:28:00.054Z,18.90
2022-08-07T06:30:52.911Z,19.06
2022-08-07T06:33:56.162Z,19.10
2022-08-07T06:36:59.641Z,19.15
2022-08-07T06:40:13.106Z,19.16
2022-08-07T06:43:23.835Z,19.44
2022-08-07T06:46:31.273Z,19.53
2022-08-07T06:49:50.995Z,19.63
2022-08-07T06:52:55.751Z,19.64
2022-08-07T06:56:01.194Z,19.80
2022-08-07T07:00:11.856Z,19.97
2022-08-07T07:02:53.709Z,20.07
2022-08-07T07:06:02.995Z,20.23
2022-08-07T07:09:24.670Z,20.42
2022-08-07T07:12:41.842Z,20.50
2022-08-07T07:15:56.970Z,20.73
2022-08-07T07:19:41.010Z,21.03
2022-08-07T07:22:36.972Z,21.09
2022-08-07T07:26:35.523Z,21.22
2022-08-07T07:29:40.537Z,21.45
2022-08-07T07:32:42.697Z,21.50
2022-08-07T07:36:04.156Z,21.48
2022-08-07T07:39:09.417Z,21.74
2022-08-07T07:42:17.721Z,22.05
2022-08-07T07:46:37.412Z,22.28
2022-08-07T07:48:52.004Z,22.21
2022-08-07T07:52:04.298Z,22.26
2022-08-07T07:55:11.576Z,22.31
2022-08-07T07:58:14.658Z,22.55
2022-08-07T08:02:02.575Z,22.57
2022-08-07T08:04:46.774Z,22.73
2022-08-07T08:08:01.197Z,22.95
2022-08-07T08:11:08.197Z,23.08
2022-08-07T08:14:11.383Z,23.29
2022-08-07T08:17:57.550Z,23.58
2022-08-07T08:20:40.645Z,23.72
2022-08-07T08:24:03.687Z,23.77
2022-08-07T08:27:09.657Z,23.86
2022-08-07T08:30:17.465Z,23.74
2022-08-07T08:33:24.313Z,23.75
2022-08-07T08:36:34.118Z,23.90
2022-08-07T08:39:39.809Z,23.89
2022-08-07T08:43:04.904Z,24.14
2022-08-07T08:46:10.238Z,24.11
2022-08-07T08:49:33.186Z,24.08
2022-08-07T08:52:53.606Z,24.25
2022-08-07T08:55:59.456Z,24.15
2022-08-07T08:59:13.454Z,24.42
2022-08-07T09:02:34.649Z,24.54
2022-08-07T09:05:45.192Z,24.53
2022-08-07T09:08:57.916Z,24.56
2022-08-07T09:12:30.326Z,24.81
2022-08-07T09:16:23.467Z,24.83
2022-08-07T09:19:52.942Z,24.79
2022-08-07T09:24:32.667Z,24.63
2022-08-07T09:26:27.760Z,24.60
2022-08-07T09:30:03.930Z,24.65
2022-08-07T09:33:24.281Z,24.80
2022-08-07T09:36:37.455Z,24.92
2022-08-07T09:39:55.290Z,25.24
2022-08-07T09:43:09.230Z,25.42
2022-08-07T09:47:25.997Z,25.48
2022-08-07T09:50:19.616Z,25.54
2022-08-07T09:53:23.851Z,25.29
2022-08-07T09:56:53.586Z,25.49
2022-08-07T10:00:18.847Z,25.71
2022-08-07T10:04:04.974Z,25.58
2022-08-07T10:07:05.236Z,25.51
2022-08-07T10:11:07.769Z,25.53
2022-08-07T10:14:11.194Z,25.73
2022-08-07T10:18:02.620Z,25.91
2022-08-07T10:21:50.659Z,25.84
2022-08-07T10:25:22.817Z,25.97
2022-08-07T10:28:39.503Z,26.02
2022-08-07T10:31:58.456Z,25.89
2022-08-07T10:35:12.454Z,26.00
2022-08-07T10:38:36.131Z,26.01
2022-08-07T10:42:00.406Z,26.07
2022-08-07T10:45:19.745Z,26.09
2022-08-07T10:48:48.627Z,26.22
2022-08-07T10:52:12.984Z,26.26
2022-08-07T10:55:37.197Z,26.31
2022-08-07T10:58:59.655Z,26.13
2022-08-07T11:02:12.290Z,26.18
2022-08-07T11:05:35.812Z,26.30
2022-08-07T11:08:57.702Z,26.50
2022-08-07T11:12:04.372Z,26.59
2022-08-07T11:15:17.356Z,26.57
2022-08-07T11:18:27.480Z,26.75
2022-08-07T11:21:40.802Z,26.94
2022-08-07T11:24:51.872Z,27.04
2022-08-07T11:28:02.115Z,27.03
2022-08-07T11:31:11.709Z,26.87
2022-08-07T11:34:20.605Z,27.02
2022-08-07T11:37:38.333Z,26.82
2022-08-07T11:40:50.554Z,26.69
2022-08-07T11:44:12.721Z,27.01
2022-08-07T11:47:38.679Z,27.19
2022-08-07T11:51:03.733Z,27.14
2022-08-07T11:54:17.743Z,27.06
2022-08-07T11:58:00.792Z,27.48
2022-08-07T12:01:05.074Z,27.61
2022-08-07T12:04:45.875Z,27.81
2022-08-07T12:08:00.532Z,27.76
2022-08-07T12:11:21.562Z,27.80
2022-08-07T12:14:28.832Z,27.91
2022-08-07T12:17:59.801Z,27.96
2022-08-07T12:21:21.161Z,28.23
2022-08-07T12:24:41.146Z,27.94
2022-08-07T12:28:08.721Z,28.15
2022-08-07T12:31:17.201Z,28.31
2022-08-07T12:34:26.037Z,28.41
2022-08-07T12:38:09.396Z,28.59
2022-08-07T12:40:53.739Z,28.55
2022-08-07T12:44:04.354Z,29.03
2022-08-07T12:47:14.077Z,29.23
2022-08-07T12:50:39.372Z,29.26
2022-08-07T12:54:03.433Z,29.72
2022-08-07T12:57:10.800Z,35.01
2022-08-07T13:00:31.124Z,41.25
2022-08-07T13:04:00.547Z,42.12
2022-08-07T13:08:14.533Z,43.72
2022-08-07T13:11:31.294Z,46.61
2022-08-07T13:15:00.739Z,45.13
2022-08-07T13:18:26.050Z,45.78
2022-08-07T13:21:50.207Z,47.59
2022-08-07T13:24:59.145Z,50.25
2022-08-07T13:28:11.459Z,50.87
2022-08-07T13:31:22.042Z,50.54
2022-08-07T13:34:37.011Z,48.42
2022-08-07T13:37:49.656Z,50.23
2022-08-07T13:41:06.141Z,50.10
2022-08-07T13:44:13.049Z,50.45
2022-08-07T13:47:25.079Z,51.22
2022-08-07T13:50:32.957Z,51.85
2022-08-07T13:53:59.333Z,52.00
2022-08-07T13:57:10.877Z,49.36
2022-08-07T14:00:26.235Z,50.86
2022-08-07T14:04:07.487Z,50.72
2022-08-07T14:06:56.558Z,51.49
2022-08-07T14:10:16.414Z,50.31
2022-08-07T14:13:33.228Z,51.64
2022-08-07T14:16:40.641Z,52.47
2022-08-07T14:20:41.161Z,52.34
2022-08-07T14:23:31.235Z,52.67
2022-08-07T14:26:50.428Z,54.37
2022-08-07T14:30:06.232Z,52.79
2022-08-07T14:33:15.207Z,53.18
2022-08-07T14:36:17.953Z,54.76
2022-08-07T14:40:17.071Z,54.03
2022-08-07T14:42:59.932Z,52.84
2022-08-07T14:46:04.852Z,54.66
2022-08-07T14:52:33.947Z,51.93
2022-08-07T14:55:55.512Z,43.96
2022-08-07T15:02:31.631Z,42.57
2022-08-07T15:05:37.603Z,41.58
2022-08-07T15:09:03.529Z,47.81
2022-08-07T15:12:30.545Z,43.00
2022-08-07T15:15:38.838Z,50.21
2022-08-07T15:18:45.281Z,53.56
2022-08-07T15:25:19.768Z,53.02
2022-08-07T15:28:34.411Z,51.26
2022-08-07T15:31:58.010Z,50.93
2022-08-07T15:35:06.556Z,52.74
2022-08-07T15:38:30.132Z,53.26
2022-08-07T15:42:44.141Z,55.11
2022-08-07T15:44:57.944Z,51.14
2022-08-07T15:48:08.000Z,52.65
2022-08-07T15:51:17.168Z,54.54
2022-08-07T15:54:21.844Z,54.08
2022-08-07T15:57:47.398Z,53.86
2022-08-07T16:00:51.475Z,51.22
2022-08-07T16:04:01.393Z,51.41
2022-08-07T16:08:33.706Z,52.75
2022-08-07T16:10:30.005Z,53.67
2022-08-07T16:14:03.235Z,52.36
2022-08-07T16:18:02.337Z,51.19
2022-08-07T16:21:43.992Z,53.76
2022-08-07T16:24:34.628Z,55.05
2022-08-07T16:27:45.144Z,53.24
2022-08-07T16:30:55.877Z,52.30
2022-08-07T16:34:07.403Z,51.68
2022-08-07T16:38:03.059Z,51.31
2022-08-07T16:41:20.773Z,51.17
2022-08-07T16:45:03.801Z,52.64
2022-08-07T16:48:53.744Z,51.17
2022-08-07T16:52:51.707Z,51.39
2022-08-07T16:55:47.671Z,51.93
2022-08-07T16:59:14.588Z,52.32
2022-08-07T17:02:53.611Z,49.27
2022-08-07T17:06:31.465Z,46.66
2022-08-07T17:10:05.331Z,45.19
2022-08-07T17:13:05.919Z,40.12
2022-08-07T17:16:16.709Z,36.26
2022-08-07T17:20:00.690Z,33.50
2022-08-07T17:22:59.174Z,32.01
2022-08-07T17:26:23.466Z,31.04
2022-08-07T17:30:14.914Z,30.33
2022-08-07T17:34:09.102Z,29.84
2022-08-07T17:36:57.709Z,29.30
2022-08-07T17:40:08.074Z,28.92
2022-08-07T17:43:18.470Z,28.79
2022-08-07T17:46:34.511Z,28.65
2022-08-07T17:49:43.093Z,28.53
2022-08-07T17:52:53.944Z,28.32
2022-08-07T17:56:06.813Z,28.15
2022-08-07T17:59:11.183Z,27.97
2022-08-07T18:02:29.989Z,27.77
2022-08-07T18:06:02.944Z,27.60
2022-08-07T18:09:05.878Z,27.50
2022-08-07T18:12:20.268Z,27.29
2022-08-07T18:15:42.323Z,27.10
2022-08-07T18:21:02.364Z,26.84
2022-08-07T18:22:27.351Z,26.65
2022-08-07T18:25:40.117Z,26.48
2022-08-07T18:28:57.588Z,26.30
2022-08-07T18:32:09.919Z,26.15
2022-08-07T18:35:18.937Z,25.99
2022-08-07T18:38:56.140Z,25.82
2022-08-07T18:41:58.726Z,25.66
2022-08-07T18:45:44.209Z,25.57
2022-08-07T18:50:31.880Z,25.55
2022-08-07T18:52:37.361Z,25.27
2022-08-07T18:55:57.130Z,25.00
2022-08-07T18:59:46.766Z,24.76
2022-08-07T19:02:55.526Z,24.66
2022-08-07T19:06:04.333Z,24.45
2022-08-07T19:09:55.486Z,24.33
2022-08-07T19:12:58.125Z,24.30
2022-08-07T19:17:05.842Z,24.24
2022-08-07T19:19:55.649Z,24.10
2022-08-07T19:23:18.643Z,23.85
2022-08-07T19:26:28.925Z,23.66
2022-08-07T19:31:05.544Z,23.51
2022-08-07T19:32:59.627Z,23.28
2022-08-07T19:36:03.653Z,23.20
2022-08-07T19:39:08.965Z,23.06
2022-08-07T19:42:24.981Z,22.85
2022-08-07T19:46:05.861Z,22.70
2022-08-07T19:48:59.590Z,22.65
2022-08-07T19:52:02.535Z,22.46
2022-08-07T19:55:05.643Z,22.43
2022-08-07T19:58:16.839Z,22.36
2022-08-07T20:01:56.116Z,22.19
2022-08-07T20:04:50.106Z,21.97
2022-08-07T20:07:58.407Z,21.93
2022-08-07T20:11:03.887Z,21.86
2022-08-07T20:14:20.787Z,21.79
2022-08-07T20:17:29.337Z,21.69
2022-08-07T20:20:33.176Z,21.48
2022-08-07T20:23:42.915Z,21.29
2022-08-07T20:26:51.953Z,21.19
2022-08-07T20:30:00.675Z,21.17
2022-08-07T20:33:04.959Z,21.12
2022-08-07T20:36:13.230Z,21.30
2022-08-07T20:40:03.094Z,21.18
2022-08-07T20:42:47.613Z,20.98
2022-08-07T20:46:29.864Z,20.83
2022-08-07T20:49:58.374Z,21.11
2022-08-07T20:52:50.543Z,20.88
2022-08-07T20:55:58.168Z,20.80
2022-08-07T20:59:05.356Z,20.81
2022-08-07T21:02:37.547Z,20.78
2022-08-07T21:05:54.669Z,20.65
2022-08-07T21:09:13.826Z,20.62
2022-08-07T21:12:28.411Z,20.49
2022-08-07T21:15:58.592Z,20.34
2022-08-07T21:19:00.578Z,20.26
2022-08-07T21:22:05.536Z,20.19
2022-08-07T21:25:13.270Z,20.46
2022-08-07T21:28:47.986Z,20.24
2022-08-07T21:32:42.938Z,20.14
2022-08-07T21:35:13.823Z,20.07
2022-08-07T21:38:27.453Z,19.94
2022-08-07T21:41:38.017Z,19.97
2022-08-07T21:44:59.257Z,19.97
2022-08-07T21:48:05.295Z,20.06
2022-08-07T21:51:19.888Z,19.95
2022-08-07T21:54:37.505Z,20.05
2022-08-07T21:57:52.327Z,19.85
2022-08-07T22:00:58.336Z,19.92
2022-08-07T22:04:04.486Z,19.73
2022-08-07T22:07:13.312Z,19.61
2022-08-07T22:10:20.052Z,19.58
2022-08-07T22:13:52.607Z,19.61
2022-08-07T22:16:52.581Z,19.43
2022-08-07T22:20:22.805Z,19.33
2022-08-07T22:23:33.051Z,19.22
2022-08-07T22:26:44.375Z,19.16
2022-08-07T22:29:52.743Z,19.02
2022-08-07T22:33:04.924Z,19.01
2022-08-07T22:36:13.648Z,18.87
2022-08-07T22:39:28.307Z,19.00
2022-08-07T22:46:21.604Z,18.75
2022-08-07T22:49:54.098Z,18.64
2022-08-07T22:53:05.557Z,18.59
2022-08-07T22:56:14.131Z,18.48
2022-08-07T22:59:52.787Z,18.47
2022-08-07T23:03:09.542Z,18.49
2022-08-07T23:06:35.408Z,18.54
2022-08-07T23:10:06.338Z,18.61
2022-08-07T23:13:29.436Z,18.48
2022-08-07T23:16:54.768Z,18.33
2022-08-07T23:20:51.451Z,18.23
2022-08-07T23:24:06.042Z,18.08
2022-08-07T23:28:21.411Z,18.03
2022-08-07T23:31:42.568Z,17.92
2022-08-07T23:34:56.524Z,18.19
2022-08-07T23:38:19.273Z,18.33
2022-08-07T23:42:05.026Z,18.15
2022-08-07T23:45:33.293Z,18.07
2022-08-07T23:48:58.798Z,18.29
2022-08-07T23:53:01.317Z,18.22
2022-08-07T23:55:52.437Z,18.03
2022-08-07T23:59:10.576Z,17.82
